EDI weather

Edinburgh Airport
Edinburgh, Scotland, United Kingdom

Public forecast

Using degrees Celsius for public forecast. Weather courtesy of forecast.io.

METAR (pilot weather report)

Retrieved 2019/03/23 22:20 UTC (12 minutes ago):

EGPH 232220Z 23009KT CAVOK 04/01 Q1030

TAF (pilot weather forecast)

Retrieved 2019/03/23 18:15 UTC (4 hours ago):

TAF EGPH 231702Z 2318/2418 24009KT 9999 FEW035 PROB40 TEMPO 2403/2409 25015G25KT 8000 -SHRA TEMPO 2409/2418 26020G32KT PROB40 TEMPO 2409/2414 6000 SHRA BKN014